createdAt,value
2023-03-19T00:00:29.257Z,95.00
2023-03-19T00:02:56.480Z,94.70
2023-03-19T00:05:23.355Z,95.30
2023-03-19T00:07:50.146Z,96.90
2023-03-19T00:10:17.314Z,97.40
2023-03-19T00:12:44.217Z,96.80
2023-03-19T00:15:14.438Z,96.70
2023-03-19T00:17:42.919Z,95.20
2023-03-19T00:20:11.406Z,96.80
2023-03-19T00:22:38.273Z,96.70
2023-03-19T00:25:05.590Z,96.80
2023-03-19T00:27:32.389Z,95.80
2023-03-19T00:29:59.292Z,97.30
2023-03-19T00:32:26.559Z,98.10
2023-03-19T00:34:53.436Z,98.50
2023-03-19T00:37:20.276Z,97.80
2023-03-19T00:39:47.601Z,98.60
2023-03-19T00:42:14.781Z,97.10
2023-03-19T00:44:41.933Z,97.30
2023-03-19T00:47:08.891Z,97.90
2023-03-19T00:49:35.967Z,97.80
2023-03-19T00:52:02.811Z,99.20
2023-03-19T00:54:29.614Z,99.00
2023-03-19T00:56:56.986Z,98.10
2023-03-19T00:59:25.429Z,99.60
2023-03-19T01:01:52.616Z,99.40
2023-03-19T01:04:20.361Z,99.90
2023-03-19T01:06:48.118Z,99.90
2023-03-19T01:09:15.109Z,99.80
2023-03-19T01:11:42.088Z,99.90
2023-03-19T01:14:09.578Z,99.70
2023-03-19T01:16:36.707Z,99.60
2023-03-19T01:19:04.304Z,99.90
2023-03-19T01:21:31.495Z,99.90
2023-03-19T01:23:58.801Z,99.90
2023-03-19T01:26:27.432Z,99.90
2023-03-19T01:28:59.418Z,99.80
2023-03-19T01:31:27.305Z,99.90
2023-03-19T01:34:23.164Z,99.90
2023-03-19T01:36:55.266Z,99.90
2023-03-19T01:39:28.758Z,99.90
2023-03-19T01:41:56.290Z,99.90
2023-03-19T01:44:40.443Z,99.90
2023-03-19T01:47:35.025Z,99.90
2023-03-19T01:50:47.632Z,99.90
2023-03-19T01:53:27.978Z,99.90
2023-03-19T01:56:07.111Z,99.90
2023-03-19T01:58:55.066Z,99.90
2023-03-19T02:01:48.351Z,99.90
2023-03-19T02:04:15.414Z,99.90
2023-03-19T02:06:42.959Z,99.90
2023-03-19T02:09:10.023Z,99.90
2023-03-19T02:11:37.742Z,99.90
2023-03-19T02:14:04.562Z,99.90
2023-03-19T02:16:31.944Z,99.90
2023-03-19T02:18:59.166Z,99.90
2023-03-19T02:21:26.213Z,99.90
2023-03-19T02:24:19.723Z,99.90
2023-03-19T02:27:13.071Z,99.90
2023-03-19T02:29:45.050Z,99.90
2023-03-19T02:32:12.885Z,99.90
2023-03-19T02:34:41.009Z,99.90
2023-03-19T02:37:13.404Z,99.90
2023-03-19T02:39:43.559Z,99.90
2023-03-19T02:42:11.850Z,99.90
2023-03-19T02:44:38.815Z,99.90
2023-03-19T02:47:06.272Z,99.90
2023-03-19T02:49:33.152Z,99.90
2023-03-19T02:51:59.999Z,99.90
2023-03-19T02:54:27.255Z,99.90
2023-03-19T02:56:54.153Z,99.90
2023-03-19T02:59:21.317Z,99.90
2023-03-19T03:01:48.634Z,99.90
2023-03-19T03:04:16.713Z,99.90
2023-03-19T03:06:44.435Z,99.90
2023-03-19T03:09:12.754Z,99.90
2023-03-19T03:11:41.699Z,99.90
2023-03-19T03:14:09.379Z,99.90
2023-03-19T03:16:37.783Z,99.90
2023-03-19T03:19:05.112Z,99.90
2023-03-19T03:21:34.359Z,99.90
2023-03-19T03:24:02.392Z,99.90
2023-03-19T03:26:29.285Z,99.90
2023-03-19T03:28:56.132Z,99.90
2023-03-19T03:31:23.342Z,99.90
2023-03-19T03:33:50.462Z,99.90
2023-03-19T03:36:17.667Z,99.90
2023-03-19T03:38:45.292Z,99.90
2023-03-19T03:41:12.822Z,99.90
2023-03-19T03:43:41.103Z,99.90
2023-03-19T03:46:08.794Z,99.90
2023-03-19T03:48:35.884Z,99.90
2023-03-19T03:51:03.383Z,99.90
2023-03-19T03:53:31.469Z,99.90
2023-03-19T03:55:58.869Z,99.90
2023-03-19T03:58:28.006Z,99.90
2023-03-19T04:00:55.523Z,99.90
2023-03-19T04:03:24.394Z,99.90
2023-03-19T04:05:52.214Z,99.90
2023-03-19T04:08:20.714Z,99.90
2023-03-19T04:10:47.871Z,99.90
2023-03-19T04:13:15.244Z,99.90
2023-03-19T04:15:43.237Z,99.90
2023-03-19T04:18:11.241Z,99.90
2023-03-19T04:20:38.178Z,99.90
2023-03-19T04:23:05.050Z,99.90
2023-03-19T04:25:31.897Z,99.90
2023-03-19T04:27:59.110Z,99.90
2023-03-19T04:30:29.062Z,99.90
2023-03-19T04:32:56.761Z,99.90
2023-03-19T04:35:23.930Z,99.90
2023-03-19T04:37:50.903Z,99.90
2023-03-19T04:40:20.564Z,99.90
2023-03-19T04:42:48.586Z,99.90
2023-03-19T04:45:29.500Z,99.90
2023-03-19T04:47:56.837Z,99.90
2023-03-19T04:50:24.213Z,99.90
2023-03-19T04:52:51.380Z,99.90
2023-03-19T04:55:18.667Z,99.90
2023-03-19T04:57:53.419Z,99.90
2023-03-19T05:00:23.431Z,99.90
2023-03-19T05:02:50.306Z,99.90
2023-03-19T05:05:17.344Z,99.90
2023-03-19T05:07:44.607Z,99.90
2023-03-19T05:10:11.961Z,99.90
2023-03-19T05:12:39.038Z,99.90
2023-03-19T05:15:07.890Z,99.90
2023-03-19T05:17:53.831Z,99.90
2023-03-19T05:20:29.947Z,99.90
2023-03-19T05:23:03.342Z,99.90
2023-03-19T05:25:44.071Z,99.90
2023-03-19T05:28:14.598Z,99.90
2023-03-19T05:30:43.257Z,99.90
2023-03-19T05:33:18.003Z,99.90
2023-03-19T05:35:45.972Z,99.90
2023-03-19T05:38:22.204Z,99.90
2023-03-19T05:40:56.191Z,99.90
2023-03-19T05:43:30.056Z,99.90
2023-03-19T05:45:58.099Z,99.90
2023-03-19T05:48:29.315Z,99.90
2023-03-19T05:50:56.727Z,99.90
2023-03-19T05:53:24.810Z,99.90
2023-03-19T05:56:11.768Z,99.90
2023-03-19T05:58:51.380Z,99.90
2023-03-19T06:01:23.120Z,99.90
2023-03-19T06:03:50.572Z,99.90
2023-03-19T06:06:17.534Z,99.90
2023-03-19T06:08:45.988Z,99.90
2023-03-19T06:11:20.055Z,99.90
2023-03-19T06:13:53.413Z,99.90
2023-03-19T06:16:20.978Z,99.90
2023-03-19T06:18:52.055Z,99.90
2023-03-19T06:21:19.676Z,99.90
2023-03-19T06:23:46.572Z,99.90
2023-03-19T06:26:17.940Z,99.90
2023-03-19T06:28:51.256Z,99.90
2023-03-19T06:31:18.828Z,99.90
2023-03-19T06:34:01.607Z,99.90
2023-03-19T06:36:39.238Z,99.90
2023-03-19T06:39:09.303Z,99.90
2023-03-19T06:41:37.256Z,99.90
2023-03-19T06:44:19.239Z,99.90
2023-03-19T06:46:46.220Z,99.90
2023-03-19T06:49:13.063Z,99.90
2023-03-19T06:51:40.055Z,99.90
2023-03-19T06:54:07.049Z,99.90
2023-03-19T06:56:33.905Z,99.90
2023-03-19T06:59:00.935Z,99.90
2023-03-19T07:01:27.817Z,99.90
2023-03-19T07:03:55.409Z,99.90
2023-03-19T07:06:22.269Z,99.90
2023-03-19T07:08:49.118Z,99.90
2023-03-19T07:11:16.641Z,99.90
2023-03-19T07:13:43.498Z,99.90
2023-03-19T07:16:10.496Z,99.90
2023-03-19T07:18:37.355Z,99.90
2023-03-19T07:21:04.434Z,99.90
2023-03-19T07:23:31.607Z,99.90
2023-03-19T07:25:58.674Z,99.90
2023-03-19T07:28:25.660Z,99.90
2023-03-19T07:30:53.392Z,99.90
2023-03-19T07:33:21.077Z,99.90
2023-03-19T07:35:48.155Z,99.90
2023-03-19T07:38:15.090Z,99.90
2023-03-19T07:40:51.420Z,99.90
2023-03-19T07:43:26.159Z,99.90
2023-03-19T07:45:53.266Z,99.90
2023-03-19T07:48:20.106Z,99.90
2023-03-19T07:50:47.077Z,99.90
2023-03-19T07:53:13.893Z,99.90
2023-03-19T07:55:40.794Z,99.90
2023-03-19T07:58:07.586Z,99.90
2023-03-19T08:00:34.588Z,99.90
2023-03-19T08:03:01.626Z,99.90
2023-03-19T08:05:28.620Z,99.90
2023-03-19T08:07:55.627Z,99.90
2023-03-19T08:10:22.666Z,99.90
2023-03-19T08:12:49.458Z,99.90
2023-03-19T08:15:16.562Z,96.90
2023-03-19T08:17:43.379Z,96.30
2023-03-19T08:20:16.702Z,94.00
2023-03-19T08:22:43.811Z,91.60
2023-03-19T08:25:10.882Z,91.50
2023-03-19T08:27:37.909Z,91.50
2023-03-19T08:30:06.359Z,90.90
2023-03-19T08:32:33.188Z,89.10
2023-03-19T08:35:00.401Z,90.60
2023-03-19T08:37:27.216Z,90.20
2023-03-19T08:39:54.016Z,89.30
2023-03-19T08:42:21.528Z,88.00
2023-03-19T08:44:48.826Z,87.50
2023-03-19T08:47:15.853Z,85.90
2023-03-19T08:49:42.793Z,85.10
2023-03-19T08:52:09.814Z,86.10
2023-03-19T08:54:36.985Z,83.70
2023-03-19T08:57:03.957Z,85.70
2023-03-19T08:59:33.765Z,82.10
2023-03-19T09:02:01.680Z,82.70
2023-03-19T09:04:28.775Z,81.20
2023-03-19T09:06:55.932Z,79.60
2023-03-19T09:09:23.580Z,78.50
2023-03-19T09:11:50.518Z,76.00
2023-03-19T09:14:19.919Z,78.10
2023-03-19T09:16:46.876Z,79.20
2023-03-19T09:19:13.738Z,77.80
2023-03-19T09:21:40.690Z,78.30
2023-03-19T09:24:07.610Z,78.60
2023-03-19T09:26:34.552Z,77.00
2023-03-19T09:29:02.194Z,76.80
2023-03-19T09:31:29.846Z,77.10
2023-03-19T09:33:56.956Z,77.60
2023-03-19T09:36:23.948Z,77.90
2023-03-19T09:38:50.739Z,78.60
2023-03-19T09:41:21.033Z,80.80
2023-03-19T09:44:10.726Z,78.30
2023-03-19T09:46:53.777Z,79.40
2023-03-19T09:49:38.468Z,79.40
2023-03-19T09:52:27.422Z,78.20
2023-03-19T09:54:54.991Z,76.40
2023-03-19T09:57:21.847Z,77.90
2023-03-19T09:59:49.207Z,78.60
2023-03-19T10:02:22.325Z,77.80
2023-03-19T10:05:15.684Z,78.20
2023-03-19T10:08:01.451Z,77.80
2023-03-19T10:10:28.294Z,78.50
2023-03-19T10:13:07.453Z,78.20
2023-03-19T10:15:35.333Z,79.20
2023-03-19T10:18:06.269Z,78.30
2023-03-19T10:21:01.161Z,79.70
2023-03-19T10:23:59.402Z,79.80
2023-03-19T10:26:36.960Z,78.80
2023-03-19T10:29:16.484Z,79.10
2023-03-19T10:31:49.368Z,78.80
2023-03-19T10:34:34.841Z,78.00
2023-03-19T10:37:06.617Z,77.60
2023-03-19T10:39:34.830Z,78.30
2023-03-19T10:42:27.051Z,77.70
2023-03-19T10:45:09.049Z,77.60
2023-03-19T10:47:39.122Z,76.80
2023-03-19T10:50:07.005Z,76.70
2023-03-19T10:52:37.158Z,76.90
2023-03-19T10:55:15.573Z,77.30
2023-03-19T10:57:43.483Z,75.50
2023-03-19T11:00:19.574Z,74.70
2023-03-19T11:02:53.898Z,74.70
2023-03-19T11:05:31.227Z,75.00
2023-03-19T11:08:03.791Z,75.20
2023-03-19T11:10:32.100Z,73.50
2023-03-19T11:13:06.168Z,72.80
2023-03-19T11:15:37.687Z,72.40
2023-03-19T11:18:17.034Z,72.70
2023-03-19T11:20:43.907Z,73.60
2023-03-19T11:23:36.943Z,73.40
2023-03-19T11:26:04.379Z,70.60
2023-03-19T11:28:34.188Z,70.90
2023-03-19T11:31:21.718Z,70.40
2023-03-19T11:33:57.646Z,70.40
2023-03-19T11:36:24.461Z,70.10
2023-03-19T11:39:30.510Z,70.70
2023-03-19T11:42:19.967Z,69.60
2023-03-19T11:44:59.232Z,69.50
2023-03-19T11:48:03.665Z,68.80
2023-03-19T11:50:36.148Z,68.80
2023-03-19T11:53:06.894Z,69.00
2023-03-19T11:55:56.572Z,69.80
2023-03-19T11:58:35.163Z,68.60
2023-03-19T12:01:16.145Z,69.00
2023-03-19T12:03:51.985Z,69.50
2023-03-19T12:06:36.930Z,70.00
2023-03-19T12:09:14.498Z,70.00
2023-03-19T12:11:54.634Z,70.20
2023-03-19T12:14:49.859Z,70.80
2023-03-19T12:17:55.333Z,71.90
2023-03-19T12:20:59.527Z,72.10
2023-03-19T12:23:26.643Z,72.70
2023-03-19T12:26:04.732Z,73.50
2023-03-19T12:28:39.584Z,73.70
2023-03-19T12:31:15.528Z,74.70
2023-03-19T12:33:47.772Z,73.90
2023-03-19T12:36:23.994Z,74.80
2023-03-19T12:39:11.220Z,74.80
2023-03-19T12:41:41.653Z,76.30
2023-03-19T12:44:24.512Z,76.60
2023-03-19T12:46:59.265Z,77.60
2023-03-19T12:49:38.278Z,78.20
2023-03-19T12:52:27.376Z,78.50
2023-03-19T12:55:04.536Z,78.50
2023-03-19T12:57:32.667Z,78.80
2023-03-19T13:00:14.040Z,79.50
2023-03-19T13:03:03.695Z,80.00
2023-03-19T13:05:39.507Z,80.30
2023-03-19T13:08:16.924Z,84.10
2023-03-19T13:10:43.808Z,86.60
2023-03-19T13:13:18.715Z,88.50
2023-03-19T13:15:47.931Z,89.40
2023-03-19T13:18:26.130Z,90.30
2023-03-19T13:21:11.732Z,91.10
2023-03-19T13:23:39.054Z,91.60
2023-03-19T13:26:08.104Z,93.00
2023-03-19T13:28:36.673Z,94.30
2023-03-19T13:31:08.217Z,95.50
2023-03-19T13:33:35.293Z,96.30
2023-03-19T13:36:05.379Z,98.30
2023-03-19T13:38:44.230Z,99.90
2023-03-19T13:41:42.489Z,99.90
2023-03-19T13:44:18.953Z,99.90
2023-03-19T13:46:46.096Z,99.90
2023-03-19T13:49:28.705Z,99.90
2023-03-19T13:51:58.437Z,99.90
2023-03-19T13:54:38.945Z,99.90
2023-03-19T13:57:18.629Z,99.90
2023-03-19T13:59:47.416Z,99.90
2023-03-19T14:02:23.065Z,99.90
2023-03-19T14:05:02.209Z,99.90
2023-03-19T14:07:40.468Z,99.90
2023-03-19T14:10:09.481Z,99.90
2023-03-19T14:12:40.665Z,99.90
2023-03-19T14:15:10.502Z,99.90
2023-03-19T14:18:01.666Z,99.90
2023-03-19T14:20:47.762Z,99.90
2023-03-19T14:23:26.946Z,99.90
2023-03-19T14:26:16.603Z,99.90
2023-03-19T14:28:49.686Z,99.90
2023-03-19T14:31:44.094Z,99.90
2023-03-19T14:34:18.544Z,99.90
2023-03-19T14:37:28.728Z,99.90
2023-03-19T14:40:02.891Z,99.90
2023-03-19T14:42:40.673Z,99.90
2023-03-19T14:45:14.641Z,99.90
2023-03-19T14:47:44.597Z,99.90
2023-03-19T14:50:36.144Z,99.90
2023-03-19T14:53:19.666Z,99.90
2023-03-19T14:55:51.267Z,99.90
2023-03-19T14:58:19.650Z,99.90
2023-03-19T15:00:49.186Z,99.90
2023-03-19T15:03:23.685Z,99.90
2023-03-19T15:05:50.812Z,99.90
2023-03-19T15:08:22.304Z,99.90
2023-03-19T15:11:14.454Z,99.90
2023-03-19T15:13:48.144Z,99.90
2023-03-19T15:16:37.842Z,99.90
2023-03-19T15:19:10.962Z,99.90
2023-03-19T15:21:38.568Z,99.90
2023-03-19T15:24:07.280Z,99.90
2023-03-19T15:26:36.298Z,99.90
2023-03-19T15:29:04.459Z,99.90
2023-03-19T15:31:54.054Z,99.90
2023-03-19T15:34:33.134Z,99.90
2023-03-19T15:37:10.470Z,99.90
2023-03-19T15:39:45.394Z,99.90
2023-03-19T15:42:13.068Z,99.90
2023-03-19T15:44:46.533Z,99.90
2023-03-19T15:47:24.502Z,99.90
2023-03-19T15:50:12.012Z,99.90
2023-03-19T15:52:41.229Z,99.90
2023-03-19T15:55:08.704Z,99.90
2023-03-19T15:57:36.468Z,99.90
2023-03-19T16:00:04.473Z,99.90
2023-03-19T16:02:43.555Z,99.90
2023-03-19T16:05:27.368Z,99.90
2023-03-19T16:07:57.498Z,99.90
2023-03-19T16:10:38.621Z,99.90
2023-03-19T16:13:24.204Z,99.90
2023-03-19T16:16:00.847Z,99.90
2023-03-19T16:18:29.861Z,99.90
2023-03-19T16:21:36.420Z,99.90
2023-03-19T16:24:18.349Z,99.90
2023-03-19T16:26:46.585Z,99.90
2023-03-19T16:29:47.008Z,99.90
2023-03-19T16:32:25.078Z,99.90
2023-03-19T16:35:03.883Z,99.90
2023-03-19T16:37:49.317Z,99.90
2023-03-19T16:40:20.656Z,99.90
2023-03-19T16:42:52.473Z,99.90
2023-03-19T16:45:28.745Z,99.90
2023-03-19T16:48:00.076Z,99.90
2023-03-19T16:50:36.931Z,99.90
2023-03-19T16:53:05.664Z,99.90
2023-03-19T16:55:34.809Z,99.90
2023-03-19T16:58:11.345Z,99.90
2023-03-19T17:00:38.536Z,99.90
2023-03-19T17:03:11.186Z,99.90
2023-03-19T17:05:38.034Z,99.90
2023-03-19T17:08:05.011Z,99.90
2023-03-19T17:10:32.413Z,99.90
2023-03-19T17:12:59.327Z,99.90
2023-03-19T17:15:30.183Z,99.90
2023-03-19T17:17:57.409Z,99.90
2023-03-19T17:20:28.134Z,99.90
2023-03-19T17:22:54.970Z,99.90
2023-03-19T17:25:22.110Z,99.90
2023-03-19T17:27:49.107Z,99.90
2023-03-19T17:30:16.164Z,99.90
2023-03-19T17:32:45.917Z,99.90
2023-03-19T17:35:17.437Z,99.90
2023-03-19T17:37:44.569Z,99.90
2023-03-19T17:40:31.917Z,99.90
2023-03-19T17:42:59.103Z,99.90
2023-03-19T17:45:28.756Z,99.90
2023-03-19T17:47:58.985Z,99.90
2023-03-19T17:50:27.158Z,99.90
2023-03-19T17:52:53.987Z,99.90
2023-03-19T17:55:21.827Z,99.90
2023-03-19T17:57:51.711Z,99.90
2023-03-19T18:00:19.741Z,99.90
2023-03-19T18:02:46.998Z,99.90
2023-03-19T18:05:15.501Z,99.90
2023-03-19T18:07:43.177Z,99.90
2023-03-19T18:10:15.290Z,99.90
2023-03-19T18:12:42.155Z,99.90
2023-03-19T18:15:09.472Z,99.90
2023-03-19T18:17:36.350Z,99.90
2023-03-19T18:20:04.382Z,99.90
2023-03-19T18:22:31.357Z,99.90
2023-03-19T18:24:58.250Z,99.90
2023-03-19T18:27:25.255Z,99.90
2023-03-19T18:29:52.085Z,99.90
2023-03-19T18:32:26.621Z,99.90
2023-03-19T18:34:53.516Z,99.90
2023-03-19T18:37:20.426Z,99.90
2023-03-19T18:39:47.311Z,99.90
2023-03-19T18:42:15.238Z,99.90
2023-03-19T18:44:43.220Z,99.90
2023-03-19T18:47:14.702Z,99.90
2023-03-19T18:49:41.645Z,99.90
2023-03-19T18:52:13.032Z,99.90
2023-03-19T18:54:40.020Z,99.90
2023-03-19T18:57:10.932Z,99.90
2023-03-19T18:59:37.825Z,99.90
2023-03-19T19:02:30.479Z,99.90
2023-03-19T19:04:57.316Z,99.90
2023-03-19T19:07:24.185Z,99.90
2023-03-19T19:09:51.040Z,99.90
2023-03-19T19:12:18.607Z,99.90
2023-03-19T19:14:45.721Z,99.90
2023-03-19T19:17:24.117Z,99.90
2023-03-19T19:19:51.107Z,99.90
2023-03-19T19:22:18.185Z,99.90
2023-03-19T19:24:45.299Z,99.90
2023-03-19T19:27:22.015Z,99.90
2023-03-19T19:29:49.116Z,99.90
2023-03-19T19:32:25.070Z,99.90
2023-03-19T19:34:52.556Z,99.90
2023-03-19T19:37:19.723Z,99.90
2023-03-19T19:39:46.824Z,99.90
2023-03-19T19:42:14.688Z,99.90
2023-03-19T19:44:41.854Z,99.90
2023-03-19T19:47:15.766Z,99.90
2023-03-19T19:49:43.492Z,99.90
2023-03-19T19:52:17.679Z,99.90
2023-03-19T19:54:45.668Z,99.90
2023-03-19T19:57:21.413Z,99.90
2023-03-19T19:59:48.947Z,99.90
2023-03-19T20:02:26.617Z,99.90
2023-03-19T20:04:53.805Z,99.90
2023-03-19T20:07:20.949Z,99.90
2023-03-19T20:09:48.146Z,99.90
2023-03-19T20:12:20.819Z,99.90
2023-03-19T20:14:47.758Z,99.90
2023-03-19T20:17:16.229Z,99.90
2023-03-19T20:19:43.898Z,99.90
2023-03-19T20:22:11.193Z,99.90
2023-03-19T20:24:38.348Z,99.90
2023-03-19T20:27:25.656Z,99.90
2023-03-19T20:29:53.848Z,99.90
2023-03-19T20:32:36.041Z,99.90
2023-03-19T20:35:04.264Z,99.90
2023-03-19T20:37:31.393Z,99.90
2023-03-19T20:39:58.495Z,99.90
2023-03-19T20:42:26.067Z,99.90
2023-03-19T20:44:54.741Z,99.90
2023-03-19T20:47:21.686Z,99.90
2023-03-19T20:49:48.676Z,99.90
2023-03-19T20:52:16.462Z,99.90
2023-03-19T20:54:43.527Z,99.90
2023-03-19T20:57:18.324Z,99.90
2023-03-19T20:59:46.819Z,99.90
2023-03-19T21:02:18.204Z,99.90
2023-03-19T21:04:45.715Z,99.90
2023-03-19T21:07:22.868Z,99.90
2023-03-19T21:09:49.797Z,99.90
2023-03-19T21:12:29.194Z,99.90
2023-03-19T21:14:57.462Z,99.90
2023-03-19T21:17:25.052Z,99.90
2023-03-19T21:19:51.858Z,99.90
2023-03-19T21:22:22.293Z,99.90
2023-03-19T21:24:49.648Z,99.90
2023-03-19T21:27:21.640Z,99.90
2023-03-19T21:29:48.723Z,99.90
2023-03-19T21:32:18.405Z,99.90
2023-03-19T21:34:49.022Z,99.90
2023-03-19T21:37:19.077Z,99.90
2023-03-19T21:39:46.360Z,99.90
2023-03-19T21:42:18.009Z,99.90
2023-03-19T21:44:45.910Z,99.90
2023-03-19T21:47:19.004Z,99.90
2023-03-19T21:49:45.887Z,99.90
2023-03-19T21:52:19.003Z,99.90
2023-03-19T21:54:45.933Z,99.90
2023-03-19T21:57:13.630Z,99.90
2023-03-19T21:59:40.765Z,99.90
2023-03-19T22:02:22.500Z,99.90
2023-03-19T22:04:49.417Z,99.90
2023-03-19T22:07:16.258Z,99.90
2023-03-19T22:09:43.744Z,99.90
2023-03-19T22:12:32.256Z,99.90
2023-03-19T22:14:59.100Z,99.90
2023-03-19T22:17:26.046Z,99.90
2023-03-19T22:19:52.945Z,99.90
2023-03-19T22:22:19.787Z,99.90
2023-03-19T22:24:46.588Z,99.90
2023-03-19T22:27:16.186Z,99.90
2023-03-19T22:29:43.662Z,99.90
2023-03-19T22:32:17.481Z,99.90
2023-03-19T22:34:44.641Z,99.90
2023-03-19T22:37:26.395Z,99.90
2023-03-19T22:39:53.619Z,99.90
2023-03-19T22:42:20.505Z,99.90
2023-03-19T22:44:48.933Z,99.90
2023-03-19T22:47:22.776Z,99.90
2023-03-19T22:49:49.995Z,99.90
2023-03-19T22:52:16.784Z,99.90
2023-03-19T22:54:43.714Z,99.90
2023-03-19T22:57:12.770Z,99.90
2023-03-19T22:59:39.643Z,99.90
2023-03-19T23:02:06.864Z,99.90
2023-03-19T23:04:33.807Z,99.90
2023-03-19T23:07:00.839Z,99.90
2023-03-19T23:09:32.225Z,99.90
2023-03-19T23:11:59.419Z,99.90
2023-03-19T23:14:30.211Z,99.90
2023-03-19T23:17:03.584Z,99.90
2023-03-19T23:19:32.176Z,99.90
2023-03-19T23:21:59.216Z,99.90
2023-03-19T23:24:26.629Z,99.90
2023-03-19T23:26:54.309Z,99.90
2023-03-19T23:29:40.985Z,99.90
2023-03-19T23:32:12.613Z,99.90
2023-03-19T23:34:54.052Z,99.90
2023-03-19T23:37:24.918Z,99.90
2023-03-19T23:39:51.931Z,99.90
2023-03-19T23:42:27.623Z,99.90
2023-03-19T23:44:54.496Z,99.90
2023-03-19T23:47:21.525Z,99.90
2023-03-19T23:49:48.371Z,99.90
2023-03-19T23:52:15.224Z,99.90
2023-03-19T23:54:42.408Z,99.90
2023-03-19T23:57:13.048Z,99.90
2023-03-19T23:59:41.231Z,99.90
